Monday, April 21, 2014
02:14 UTC
  |  Log In   |  Register Free
Airport Search:

La Porte Municipal Airport
(T41)

La Porte Municipal Airport Diagram
No Airport Diagram Available

FAA data valid effective April 3, 2014 until May 29, 2014 (unless otherwise noted).

 
 
 
 
 
 
 
 
 
 
 
 
 
 

Current Aviation Weather for La Porte Municipal Airport (T41)

The most recent METAR observation for KEFD was updated at: 0150 UTC
METAR Summary (Translated METAR)
KEFD
210150Z 16005KT 10SM FEW090 21/13 A3010
KHOU
(6.7 nm NW from KEFD)
210153Z 16006KT 10SM FEW100 19/16 A3008 RMK AO2 SLP192 T01940156
TAF Summary (Translated TAF)
KEFD
2020/2202 12009KT 9999 FEW040 QNH3006INS BECMG 2108/2109 VRB06KT 4800 BR SKC QNH3008INS BECMG 2111/2112 VRB06KT 0800 FG SKC QNH3010INS BECMG 2115/2116 16009KT 9999 NSW SKC QNH3000INS TX29/2120Z TN17/2108Z
KHOU
(6.7 nm NW from KEFD)
202102Z 2021/2118 14009KT P6SM FEW060 SCT120 FM210100 VRB03KT P6SM SCT100 FM210800 VRB03KT 4SM BR SCT007 SCT100 TEMPO 2110/2112 1SM BR BKN005 FM211500 17007KT P6SM SCT012 SCT250
  Airport Weather Conditions for T41

Current weather conditions are
not available for T41


The nearest NOAA weather station
is at EFD, (6.2 nm SW from T41)
  
 Current Weather at EFD
77° F
A Few Clouds
Southeast winds at 6.9 mph
EFD NOAA Radar

Pressure: 30.09 in
Humidity: 42%
Wind: Southeast at 6.9 MPH (6 KT)
Dew Point: 51.8°F
Visibility: 10.00 mi


Airport Weather Forecast for T41

Translated METAR and TAF for KEFD
Translated METAR for KEFD (0214 UTC 21 April 2014)
found at http://aviationweather.gov/adds/metars/
 
METAR text: KEFD 210150Z 16005KT 10SM FEW090 21/13 A3010
Conditions at: KEFD (HOUSTON/ELLINGTO, TX, US) observed 0150 UTC 21 April 2014
Temperature: 21.0°C (70°F)
Dewpoint: 13.0°C (55°F) [RH = 60%]
Pressure (altimeter): 30.10 inches Hg (1019.4 mb)
Winds: from the SSE (160 degrees) at 6 MPH (5 knots; 2.6 m/s)
Visibility: 10 or more miles (16+ km)
Ceiling: at least 12,000 feet AGL
Clouds: few clouds at 9000 feet AGL
Weather: no significant weather observed at this time
Translated TAF for KEFD
Forecast for: KEFD (HOUSTON/ELLINGTO, TX, US)
TAF Text: TAF KEFD 2020/2202 12009KT 9999 FEW040 QNH3006INS
Forecast period: 2000 UTC 20 April 2014 to 0800 UTC 21 April 2014
Forecast type: FROM: standard forecast or significant change
Winds: from the ESE (120 degrees) at 10 MPH (9 knots; 4.7 m/s)
Visibility: 6 or more miles (10+ km)
Clouds: few clouds at 4000 feet AGL
Weather: no significant weather forecast for this period
TAF Text: BECMG 2108/2109 VRB06KT 4800 BR SKC QNH3008INS
Forecast period: 0800 to 1100 UTC 21 April 2014
Forecast type: BECOMING: Conditions expected to become as follows by 0900 UTC 21 April 2014
Winds: variable direction winds at 7 MPH (6 knots; 3.1 m/s)
Visibility: 2.98 miles (4.80 km)
Clouds: clear skies
Weather: BR  (mist)
TAF Text: BECMG 2111/2112 VRB06KT 0800 FG SKC QNH3010INS
Forecast period: 1100 to 1500 UTC 21 April 2014
Forecast type: BECOMING: Conditions expected to become as follows by 1200 UTC 21 April 2014
Winds: variable direction winds at 7 MPH (6 knots; 3.1 m/s)
Visibility: 0.50 miles (0.80 km)
Clouds: clear skies
Weather: FG  (fog)
TAF Text: BECMG 2115/2116 16009KT 9999 NSW SKC QNH3000INS TX29/2120Z TN17/2108Z
Forecast period: 1500 UTC 21 April 2014 to 0200 UTC 22 April 2014
Forecast type: BECOMING: Conditions expected to become as follows by 1600 UTC 21 April 2014
Winds: from the SSE (160 degrees) at 10 MPH (9 knots; 4.7 m/s)
Visibility: 6 or more miles (10+ km)
Clouds: clear skies
Weather: NSW  (no significant weather)

Find All Airport Services Find A Hotel Find A Rental Car Find A Golf Course Find A Restaurant $100 Hamburger



FBO's on the Field
FBO Company Facility Photos Services Transportation Aviation Fuel Prices: Prices include tax
Catering Weather Repair Courtesy Rental Type 100LL JetA JetA+ MOGAS 8087
 
Harvey & Rihn Aviation

This FBO has not yet been rated
FS:Independent
Last Updated: Mar-14
Login to update fuel prices
SS:
Contact Harvey & Rihn AviationMore FBO Information
 
Tri-Star Aviation

This FBO has not yet been rated
FS:Avfuel
Last Updated: Mar-11
Login to update fuel prices
SS:
Contact Tri-Star AviationMore FBO Information
 
Add another FBO Facility Photos Catering Weather Repair Courtesy Rental Type 100LL JetA JetA+ MOGAS 8087
Services Transportation Aviation Fuel Prices: Prices include tax


GlobalAir.com Airport Resource Center model-print
model-print
model-print
model-print